Terminal Aerodrome Forecast
Issued by NWS

Home | Current Version | Previous Version | Graphics & Text | Print | Product List | Glossary On
Versions: 1 2 3 4 5 6 7 8 9 10 11 12 13 14 15 16 17 18 19 20 21
059
FTUS41 KCLE 071729
TAFFDY
TAF
KFDY 071729Z 0718/0818 20014KT P6SM SCT120 BKN200
     FM072200 21009KT P6SM SCT045 BKN120
     FM080300 21006KT 6SM -RA BR OVC045
      TEMPO 0803/0807 4SM -RA BR OVC025
     FM080700 22005KT 6SM BR OVC025
     FM081000 23005KT 5SM BR OVC012
     FM081400 26005KT 6SM BR OVC012=

USA.gov is the U.S. government's official web portal to all federal, state and local government web resources and services.